Impacts METAR Board
IDs:

KMDW - Chicago/Midway Intl, IL, US

Updated at: 0100 UTC 24 Jun 2018
Potential Impact None Slight Moderate High
Time 23/13Z 23/14Z 23/15Z 23/16Z 23/17Z 23/18Z 23/19Z 23/20Z 23/21Z 23/22Z 23/23Z 24/00Z 24/01Z
Temp66 68 68 71 73 76 78 80 77 77 76 76 75
Dewpt59 59 58 57 57 56 55 55 54 54 55 56 56
Altim29.74 29.76 29.76 29.75 29.75 29.74 29.74 29.75 29.76 29.76 29.76 29.77 29.77
VIS10 10 10 10 10 10 10 10 10 10 10 10 10
CIG50 44 50 60 65 250 -- -- 75 250 250 250 95
CoverBKNBKNBKNBKNBKNBKNSCTSCTBKNBKNBKNBKNBKN
FltCatVFRVFRVFRVFRVFRVFRVFRVFRVFRVFRVFRVFRVFR
WX--------------------------
WDir3050000001070100110130160
WSpd6 3 0 0 0 0 0 4 7 8 7 7 6
WGst-- -- -- -- -- -- -- -- -- -- -- -- --
Raw hourly METARs
KMDW 231253Z 03006KT 10SM FEW021 SCT033 BKN050 BKN250 19/15 A2974 RMK AO2 SLP066 T01890150
KMDW 231353Z 05003KT 10SM BKN044 BKN055 BKN250 20/15 A2976 RMK AO2 SLP072 T02000150
KMDW 231453Z 00000KT 10SM BKN050 BKN250 20/14 A2976 RMK AO2 SLP073 T02000144 51010
KMDW 231553Z 00000KT 10SM SCT048 BKN060 BKN250 22/14 A2975 RMK AO2 SLP069 T02170139
KMDW 231653Z 00000KT 10SM FEW032 FEW048 BKN065 BKN250 23/14 A2975 RMK AO2 SLP068 T02280139
KMDW 231753Z 00000KT 10SM FEW040 SCT065 BKN250 24/13 A2974 RMK AO2 SLP065 T02440133 10244 20178 56006
KMDW 231853Z 00000KT 10SM FEW050 FEW065 SCT250 26/13 A2974 RMK AO2 SLP064 T02560128
KMDW 231953Z 01004KT 10SM FEW055 SCT070 SCT250 27/13 A2975 RMK AO2 SLP065 T02670128
KMDW 232053Z 07007KT 040V100 10SM SCT060 BKN075 BKN250 25/12 A2976 RMK AO2 SLP069 T02500122 53003
KMDW 232153Z 10008KT 10SM FEW060 SCT100 BKN250 25/12 A2976 RMK AO2 SLP070 T02500122
KMDW 232253Z 11007KT 10SM SCT050TCU SCT100 BKN250 24/13 A2976 RMK AO2 SLP071 TCU S-SW T02440128
KMDW 232353Z 13007KT 10SM SCT050TCU SCT095 BKN250 24/13 A2977 RMK AO2 SLP072 TCU S-SW T02440133 10272 20244 53004
KMDW 240053Z 16006KT 10SM FEW060 BKN095 BKN250 24/13 A2977 RMK AO2 SLP072 T02390133



Page loaded:  01:00 UTC  |   06:00 PM Pacific  |   07:00 PM Mountain  |   08:00 PM Central  |   09:00 PM Eastern

 

ADVISORIES

FORECASTS

FORECASTS

OBSERVATIONS

USER TOOLS

ABOUT US